sensor_id;sensor_type;location;lat;lon;timestamp;P1;durP1;ratioP1;P2;durP2;ratioP2
21721;SDS011;11023;48.274;7.794;2024-01-06T00:01:30;8.27;;;3.95;;
21721;SDS011;11023;48.274;7.794;2024-01-06T00:03:56;5.93;;;2.95;;
21721;SDS011;11023;48.274;7.794;2024-01-06T00:06:22;10.48;;;4.07;;
21721;SDS011;11023;48.274;7.794;2024-01-06T00:08:48;5.18;;;2.97;;
21721;SDS011;11023;48.274;7.794;2024-01-06T00:11:19;5.60;;;2.83;;
21721;SDS011;11023;48.274;7.794;2024-01-06T00:13:45;6.50;;;3.38;;
21721;SDS011;11023;48.274;7.794;2024-01-06T00:16:13;4.55;;;2.63;;
21721;SDS011;11023;48.274;7.794;2024-01-06T00:18:42;5.18;;;2.83;;
21721;SDS011;11023;48.274;7.794;2024-01-06T00:21:08;6.20;;;3.30;;
21721;SDS011;11023;48.274;7.794;2024-01-06T00:23:34;9.70;;;4.03;;
21721;SDS011;11023;48.274;7.794;2024-01-06T00:25:59;11.05;;;3.75;;
21721;SDS011;11023;48.274;7.794;2024-01-06T00:28:25;7.45;;;3.88;;
21721;SDS011;11023;48.274;7.794;2024-01-06T00:30:51;6.97;;;2.70;;
21721;SDS011;11023;48.274;7.794;2024-01-06T00:33:17;7.35;;;2.70;;
21721;SDS011;11023;48.274;7.794;2024-01-06T00:35:42;5.75;;;3.13;;
21721;SDS011;11023;48.274;7.794;2024-01-06T00:38:08;4.85;;;3.00;;
21721;SDS011;11023;48.274;7.794;2024-01-06T00:40:34;5.75;;;2.83;;
21721;SDS011;11023;48.274;7.794;2024-01-06T00:43:02;8.73;;;3.10;;
21721;SDS011;11023;48.274;7.794;2024-01-06T00:45:27;7.65;;;3.75;;
21721;SDS011;11023;48.274;7.794;2024-01-06T00:47:53;9.05;;;4.25;;
21721;SDS011;11023;48.274;7.794;2024-01-06T00:50:19;8.43;;;4.40;;
21721;SDS011;11023;48.274;7.794;2024-01-06T00:52:45;11.25;;;5.47;;
21721;SDS011;11023;48.274;7.794;2024-01-06T00:55:11;12.57;;;5.43;;
21721;SDS011;11023;48.274;7.794;2024-01-06T00:57:37;12.93;;;5.78;;
21721;SDS011;11023;48.274;7.794;2024-01-06T01:00:04;11.50;;;5.70;;
21721;SDS011;11023;48.274;7.794;2024-01-06T01:02:30;10.23;;;5.35;;
21721;SDS011;11023;48.274;7.794;2024-01-06T01:04:56;15.93;;;5.57;;
21721;SDS011;11023;48.274;7.794;2024-01-06T01:07:23;12.13;;;5.13;;
21721;SDS011;11023;48.274;7.794;2024-01-06T01:09:50;8.30;;;4.60;;
21721;SDS011;11023;48.274;7.794;2024-01-06T01:12:16;10.73;;;4.88;;
21721;SDS011;11023;48.274;7.794;2024-01-06T01:14:42;10.50;;;4.55;;
21721;SDS011;11023;48.274;7.794;2024-01-06T01:17:07;8.75;;;4.40;;
21721;SDS011;11023;48.274;7.794;2024-01-06T01:19:33;9.40;;;4.20;;
21721;SDS011;11023;48.274;7.794;2024-01-06T01:21:59;9.52;;;4.50;;
21721;SDS011;11023;48.274;7.794;2024-01-06T01:24:25;10.77;;;4.80;;
21721;SDS011;11023;48.274;7.794;2024-01-06T01:26:51;6.45;;;3.95;;
21721;SDS011;11023;48.274;7.794;2024-01-06T01:29:22;12.38;;;4.82;;
21721;SDS011;11023;48.274;7.794;2024-01-06T01:31:48;11.23;;;4.93;;
21721;SDS011;11023;48.274;7.794;2024-01-06T01:34:13;7.50;;;4.20;;
21721;SDS011;11023;48.274;7.794;2024-01-06T01:36:41;10.30;;;5.22;;
21721;SDS011;11023;48.274;7.794;2024-01-06T01:39:09;8.07;;;4.57;;
21721;SDS011;11023;48.274;7.794;2024-01-06T01:41:34;10.48;;;4.90;;
21721;SDS011;11023;48.274;7.794;2024-01-06T01:44:00;11.70;;;4.95;;
21721;SDS011;11023;48.274;7.794;2024-01-06T01:46:28;11.23;;;4.72;;
21721;SDS011;11023;48.274;7.794;2024-01-06T01:48:56;9.55;;;4.07;;
21721;SDS011;11023;48.274;7.794;2024-01-06T01:51:24;9.75;;;4.85;;
21721;SDS011;11023;48.274;7.794;2024-01-06T01:53:53;12.40;;;5.13;;
21721;SDS011;11023;48.274;7.794;2024-01-06T01:56:19;6.40;;;3.92;;
21721;SDS011;11023;48.274;7.794;2024-01-06T01:58:46;8.98;;;4.28;;
21721;SDS011;11023;48.274;7.794;2024-01-06T02:01:12;7.93;;;3.88;;
21721;SDS011;11023;48.274;7.794;2024-01-06T02:03:43;8.82;;;4.80;;
21721;SDS011;11023;48.274;7.794;2024-01-06T02:06:09;8.55;;;4.32;;
21721;SDS011;11023;48.274;7.794;2024-01-06T02:08:37;7.70;;;3.60;;
21721;SDS011;11023;48.274;7.794;2024-01-06T02:11:03;15.88;;;4.55;;
21721;SDS011;11023;48.274;7.794;2024-01-06T02:13:34;5.93;;;3.60;;
21721;SDS011;11023;48.274;7.794;2024-01-06T02:16:01;6.15;;;3.60;;
21721;SDS011;11023;48.274;7.794;2024-01-06T02:18:28;7.95;;;3.85;;
21721;SDS011;11023;48.274;7.794;2024-01-06T02:20:56;7.63;;;3.55;;
21721;SDS011;11023;48.274;7.794;2024-01-06T02:23:28;5.38;;;2.90;;
21721;SDS011;11023;48.274;7.794;2024-01-06T02:25:55;7.28;;;3.35;;
21721;SDS011;11023;48.274;7.794;2024-01-06T02:28:21;9.57;;;3.58;;
21721;SDS011;11023;48.274;7.794;2024-01-06T02:30:47;9.95;;;4.07;;
21721;SDS011;11023;48.274;7.794;2024-01-06T02:33:15;6.53;;;3.95;;
21721;SDS011;11023;48.274;7.794;2024-01-06T02:35:42;6.68;;;4.05;;
21721;SDS011;11023;48.274;7.794;2024-01-06T02:38:07;9.57;;;3.75;;
21721;SDS011;11023;48.274;7.794;2024-01-06T02:40:35;6.95;;;3.80;;
21721;SDS011;11023;48.274;7.794;2024-01-06T02:43:01;8.93;;;3.88;;
21721;SDS011;11023;48.274;7.794;2024-01-06T02:45:27;7.13;;;3.95;;
21721;SDS011;11023;48.274;7.794;2024-01-06T02:47:56;8.73;;;3.83;;
21721;SDS011;11023;48.274;7.794;2024-01-06T02:50:21;12.27;;;3.83;;
21721;SDS011;11023;48.274;7.794;2024-01-06T02:52:47;6.88;;;3.65;;
21721;SDS011;11023;48.274;7.794;2024-01-06T02:55:13;7.43;;;3.90;;
21721;SDS011;11023;48.274;7.794;2024-01-06T02:57:39;6.93;;;3.47;;
21721;SDS011;11023;48.274;7.794;2024-01-06T03:00:08;7.22;;;3.55;;
21721;SDS011;11023;48.274;7.794;2024-01-06T03:02:35;7.00;;;3.15;;
21721;SDS011;11023;48.274;7.794;2024-01-06T03:05:03;6.18;;;3.42;;
21721;SDS011;11023;48.274;7.794;2024-01-06T03:07:29;7.07;;;3.13;;
21721;SDS011;11023;48.274;7.794;2024-01-06T03:09:54;5.38;;;2.97;;
21721;SDS011;11023;48.274;7.794;2024-01-06T03:12:20;5.65;;;2.95;;
21721;SDS011;11023;48.274;7.794;2024-01-06T03:14:47;5.38;;;2.92;;
21721;SDS011;11023;48.274;7.794;2024-01-06T03:17:13;8.52;;;2.83;;
21721;SDS011;11023;48.274;7.794;2024-01-06T03:19:38;6.50;;;3.00;;
21721;SDS011;11023;48.274;7.794;2024-01-06T03:22:04;5.63;;;3.22;;
21721;SDS011;11023;48.274;7.794;2024-01-06T03:24:30;10.07;;;3.33;;
21721;SDS011;11023;48.274;7.794;2024-01-06T03:26:57;7.95;;;2.90;;
21721;SDS011;11023;48.274;7.794;2024-01-06T03:29:23;5.68;;;3.20;;
21721;SDS011;11023;48.274;7.794;2024-01-06T03:31:49;6.05;;;2.25;;
21721;SDS011;11023;48.274;7.794;2024-01-06T03:34:15;7.10;;;2.80;;
21721;SDS011;11023;48.274;7.794;2024-01-06T03:36:42;6.60;;;2.33;;
21721;SDS011;11023;48.274;7.794;2024-01-06T03:39:07;10.60;;;3.05;;
21721;SDS011;11023;48.274;7.794;2024-01-06T03:41:35;4.43;;;2.65;;
21721;SDS011;11023;48.274;7.794;2024-01-06T03:44:01;5.15;;;3.13;;
21721;SDS011;11023;48.274;7.794;2024-01-06T03:46:26;8.55;;;3.38;;
21721;SDS011;11023;48.274;7.794;2024-01-06T03:48:53;5.05;;;2.90;;
21721;SDS011;11023;48.274;7.794;2024-01-06T03:51:19;3.95;;;2.13;;
21721;SDS011;11023;48.274;7.794;2024-01-06T03:53:45;5.68;;;2.47;;
21721;SDS011;11023;48.274;7.794;2024-01-06T03:56:12;4.30;;;2.50;;
21721;SDS011;11023;48.274;7.794;2024-01-06T03:58:39;3.70;;;2.45;;
21721;SDS011;11023;48.274;7.794;2024-01-06T04:01:04;5.50;;;2.75;;
21721;SDS011;11023;48.274;7.794;2024-01-06T04:03:30;5.82;;;2.65;;
21721;SDS011;11023;48.274;7.794;2024-01-06T04:05:57;5.25;;;2.58;;
21721;SDS011;11023;48.274;7.794;2024-01-06T04:08:24;3.58;;;2.10;;
21721;SDS011;11023;48.274;7.794;2024-01-06T04:10:50;5.97;;;2.60;;
21721;SDS011;11023;48.274;7.794;2024-01-06T04:13:16;5.07;;;3.17;;
21721;SDS011;11023;48.274;7.794;2024-01-06T04:15:42;4.88;;;2.88;;
21721;SDS011;11023;48.274;7.794;2024-01-06T04:18:08;3.45;;;2.33;;
21721;SDS011;11023;48.274;7.794;2024-01-06T04:20:34;4.82;;;2.30;;
21721;SDS011;11023;48.274;7.794;2024-01-06T04:23:01;4.45;;;2.00;;
21721;SDS011;11023;48.274;7.794;2024-01-06T04:25:27;5.03;;;1.95;;
21721;SDS011;11023;48.274;7.794;2024-01-06T04:27:53;3.15;;;1.38;;
21721;SDS011;11023;48.274;7.794;2024-01-06T04:30:19;2.72;;;1.30;;
21721;SDS011;11023;48.274;7.794;2024-01-06T04:32:45;5.45;;;1.40;;
21721;SDS011;11023;48.274;7.794;2024-01-06T04:35:13;2.00;;;1.00;;
21721;SDS011;11023;48.274;7.794;2024-01-06T04:37:39;2.58;;;1.15;;
21721;SDS011;11023;48.274;7.794;2024-01-06T04:40:05;5.25;;;1.30;;
21721;SDS011;11023;48.274;7.794;2024-01-06T04:42:31;4.45;;;1.23;;
21721;SDS011;11023;48.274;7.794;2024-01-06T04:44:57;4.75;;;1.70;;
21721;SDS011;11023;48.274;7.794;2024-01-06T04:47:22;2.42;;;0.88;;
21721;SDS011;11023;48.274;7.794;2024-01-06T04:49:48;2.22;;;1.48;;
21721;SDS011;11023;48.274;7.794;2024-01-06T04:52:14;4.95;;;1.70;;
21721;SDS011;11023;48.274;7.794;2024-01-06T04:54:42;4.05;;;1.48;;
21721;SDS011;11023;48.274;7.794;2024-01-06T04:57:07;3.05;;;1.60;;
21721;SDS011;11023;48.274;7.794;2024-01-06T04:59:33;2.05;;;1.13;;
21721;SDS011;11023;48.274;7.794;2024-01-06T05:01:59;4.03;;;1.30;;
21721;SDS011;11023;48.274;7.794;2024-01-06T05:04:25;2.05;;;1.15;;
21721;SDS011;11023;48.274;7.794;2024-01-06T05:06:51;2.85;;;1.30;;
21721;SDS011;11023;48.274;7.794;2024-01-06T05:09:17;1.77;;;1.20;;
21721;SDS011;11023;48.274;7.794;2024-01-06T05:11:43;2.88;;;1.15;;
21721;SDS011;11023;48.274;7.794;2024-01-06T05:14:09;3.67;;;1.33;;
21721;SDS011;11023;48.274;7.794;2024-01-06T05:16:35;1.95;;;1.33;;
21721;SDS011;11023;48.274;7.794;2024-01-06T05:19:01;1.73;;;1.13;;
21721;SDS011;11023;48.274;7.794;2024-01-06T05:21:28;1.90;;;1.10;;
21721;SDS011;11023;48.274;7.794;2024-01-06T05:23:54;2.33;;;1.00;;
21721;SDS011;11023;48.274;7.794;2024-01-06T05:26:20;2.13;;;1.27;;
21721;SDS011;11023;48.274;7.794;2024-01-06T05:28:46;4.28;;;1.40;;
21721;SDS011;11023;48.274;7.794;2024-01-06T05:31:12;2.20;;;1.30;;
21721;SDS011;11023;48.274;7.794;2024-01-06T05:33:38;3.92;;;0.85;;
21721;SDS011;11023;48.274;7.794;2024-01-06T05:36:04;4.03;;;1.63;;
21721;SDS011;11023;48.274;7.794;2024-01-06T05:38:30;2.03;;;1.08;;
21721;SDS011;11023;48.274;7.794;2024-01-06T05:40:56;6.28;;;1.75;;
21721;SDS011;11023;48.274;7.794;2024-01-06T05:43:22;3.95;;;1.30;;
21721;SDS011;11023;48.274;7.794;2024-01-06T05:45:51;2.67;;;1.00;;
21721;SDS011;11023;48.274;7.794;2024-01-06T05:48:17;3.17;;;0.90;;
21721;SDS011;11023;48.274;7.794;2024-01-06T05:50:43;2.90;;;1.00;;
21721;SDS011;11023;48.274;7.794;2024-01-06T05:53:09;3.05;;;0.90;;
21721;SDS011;11023;48.274;7.794;2024-01-06T05:55:36;1.45;;;0.98;;
21721;SDS011;11023;48.274;7.794;2024-01-06T05:58:02;2.67;;;1.27;;
21721;SDS011;11023;48.274;7.794;2024-01-06T06:00:27;2.45;;;1.10;;
21721;SDS011;11023;48.274;7.794;2024-01-06T06:02:56;1.48;;;0.82;;
21721;SDS011;11023;48.274;7.794;2024-01-06T06:05:22;1.27;;;1.17;;
21721;SDS011;11023;48.274;7.794;2024-01-06T06:07:48;2.25;;;1.00;;
21721;SDS011;11023;48.274;7.794;2024-01-06T06:10:13;4.35;;;1.38;;
21721;SDS011;11023;48.274;7.794;2024-01-06T06:12:41;4.15;;;1.40;;
21721;SDS011;11023;48.274;7.794;2024-01-06T06:15:07;1.70;;;1.20;;
21721;SDS011;11023;48.274;7.794;2024-01-06T06:17:33;1.80;;;1.13;;
21721;SDS011;11023;48.274;7.794;2024-01-06T06:19:59;4.30;;;1.40;;
21721;SDS011;11023;48.274;7.794;2024-01-06T06:22:26;1.45;;;1.10;;
21721;SDS011;11023;48.274;7.794;2024-01-06T06:24:56;2.95;;;1.42;;
21721;SDS011;11023;48.274;7.794;2024-01-06T06:27:23;1.88;;;1.27;;
21721;SDS011;11023;48.274;7.794;2024-01-06T06:29:48;2.70;;;1.20;;
21721;SDS011;11023;48.274;7.794;2024-01-06T06:32:15;3.67;;;1.67;;
21721;SDS011;11023;48.274;7.794;2024-01-06T06:34:41;2.88;;;1.40;;
21721;SDS011;11023;48.274;7.794;2024-01-06T06:37:07;3.38;;;1.88;;
21721;SDS011;11023;48.274;7.794;2024-01-06T06:39:33;3.28;;;1.48;;
21721;SDS011;11023;48.274;7.794;2024-01-06T06:42:00;2.17;;;1.20;;
21721;SDS011;11023;48.274;7.794;2024-01-06T06:44:27;7.00;;;1.40;;
21721;SDS011;11023;48.274;7.794;2024-01-06T06:46:52;2.83;;;1.52;;
21721;SDS011;11023;48.274;7.794;2024-01-06T06:49:18;3.65;;;1.52;;
21721;SDS011;11023;48.274;7.794;2024-01-06T06:51:44;1.70;;;1.20;;
21721;SDS011;11023;48.274;7.794;2024-01-06T06:54:13;1.60;;;1.00;;
21721;SDS011;11023;48.274;7.794;2024-01-06T06:56:41;4.00;;;1.55;;
21721;SDS011;11023;48.274;7.794;2024-01-06T06:59:07;2.63;;;1.17;;
21721;SDS011;11023;48.274;7.794;2024-01-06T07:01:33;1.42;;;1.33;;
21721;SDS011;11023;48.274;7.794;2024-01-06T07:03:59;4.25;;;1.40;;
21721;SDS011;11023;48.274;7.794;2024-01-06T07:06:25;2.83;;;1.10;;
21721;SDS011;11023;48.274;7.794;2024-01-06T07:08:51;2.25;;;1.10;;
21721;SDS011;11023;48.274;7.794;2024-01-06T07:11:17;2.88;;;1.48;;
21721;SDS011;11023;48.274;7.794;2024-01-06T07:13:44;4.93;;;1.52;;
21721;SDS011;11023;48.274;7.794;2024-01-06T07:16:10;2.15;;;1.20;;
21721;SDS011;11023;48.274;7.794;2024-01-06T07:18:37;1.30;;;0.85;;
21721;SDS011;11023;48.274;7.794;2024-01-06T07:21:06;1.75;;;1.23;;
21721;SDS011;11023;48.274;7.794;2024-01-06T07:23:33;1.65;;;1.08;;
21721;SDS011;11023;48.274;7.794;2024-01-06T07:25:59;1.80;;;1.00;;
21721;SDS011;11023;48.274;7.794;2024-01-06T07:28:25;1.73;;;0.88;;
21721;SDS011;11023;48.274;7.794;2024-01-06T07:30:52;2.05;;;1.23;;
21721;SDS011;11023;48.274;7.794;2024-01-06T07:33:17;1.80;;;1.40;;
21721;SDS011;11023;48.274;7.794;2024-01-06T07:35:43;8.57;;;1.40;;
21721;SDS011;11023;48.274;7.794;2024-01-06T07:38:09;2.95;;;1.20;;
21721;SDS011;11023;48.274;7.794;2024-01-06T07:40:36;2.22;;;1.20;;
21721;SDS011;11023;48.274;7.794;2024-01-06T07:43:02;5.43;;;1.83;;
21721;SDS011;11023;48.274;7.794;2024-01-06T07:45:29;3.47;;;1.40;;
21721;SDS011;11023;48.274;7.794;2024-01-06T07:47:57;4.03;;;1.55;;
21721;SDS011;11023;48.274;7.794;2024-01-06T07:50:23;2.03;;;1.30;;
21721;SDS011;11023;48.274;7.794;2024-01-06T07:52:49;1.75;;;1.20;;
21721;SDS011;11023;48.274;7.794;2024-01-06T07:55:15;3.15;;;1.60;;
21721;SDS011;11023;48.274;7.794;2024-01-06T07:57:43;5.63;;;1.33;;
21721;SDS011;11023;48.274;7.794;2024-01-06T08:00:11;5.43;;;1.30;;
21721;SDS011;11023;48.274;7.794;2024-01-06T08:02:41;2.35;;;1.55;;
21721;SDS011;11023;48.274;7.794;2024-01-06T08:05:08;2.72;;;1.40;;
21721;SDS011;11023;48.274;7.794;2024-01-06T08:07:34;2.80;;;1.25;;
21721;SDS011;11023;48.274;7.794;2024-01-06T08:10:00;4.05;;;1.45;;
21721;SDS011;11023;48.274;7.794;2024-01-06T08:12:30;1.73;;;1.35;;
21721;SDS011;11023;48.274;7.794;2024-01-06T08:14:57;4.07;;;1.92;;
21721;SDS011;11023;48.274;7.794;2024-01-06T08:17:23;4.03;;;1.65;;
21721;SDS011;11023;48.274;7.794;2024-01-06T08:19:48;5.53;;;1.83;;
21721;SDS011;11023;48.274;7.794;2024-01-06T08:22:14;2.67;;;1.58;;
21721;SDS011;11023;48.274;7.794;2024-01-06T08:24:40;3.28;;;2.05;;
21721;SDS011;11023;48.274;7.794;2024-01-06T08:27:06;2.80;;;1.80;;
21721;SDS011;11023;48.274;7.794;2024-01-06T08:29:32;3.65;;;1.33;;
21721;SDS011;11023;48.274;7.794;2024-01-06T08:31:58;5.50;;;2.03;;
21721;SDS011;11023;48.274;7.794;2024-01-06T08:34:24;5.32;;;2.38;;
21721;SDS011;11023;48.274;7.794;2024-01-06T08:36:51;5.13;;;2.20;;
21721;SDS011;11023;48.274;7.794;2024-01-06T08:39:16;7.05;;;2.35;;
21721;SDS011;11023;48.274;7.794;2024-01-06T08:41:42;3.47;;;2.10;;
21721;SDS011;11023;48.274;7.794;2024-01-06T08:44:10;4.80;;;2.67;;
21721;SDS011;11023;48.274;7.794;2024-01-06T08:46:36;6.72;;;3.00;;
21721;SDS011;11023;48.274;7.794;2024-01-06T08:49:02;10.30;;;3.85;;
21721;SDS011;11023;48.274;7.794;2024-01-06T08:51:28;5.95;;;2.85;;
21721;SDS011;11023;48.274;7.794;2024-01-06T08:53:56;4.03;;;2.35;;
21721;SDS011;11023;48.274;7.794;2024-01-06T08:56:22;4.22;;;2.03;;
21721;SDS011;11023;48.274;7.794;2024-01-06T08:58:48;5.53;;;2.10;;
21721;SDS011;11023;48.274;7.794;2024-01-06T09:01:13;3.05;;;1.95;;
21721;SDS011;11023;48.274;7.794;2024-01-06T09:03:39;3.58;;;2.40;;
21721;SDS011;11023;48.274;7.794;2024-01-06T09:06:07;4.18;;;2.00;;
21721;SDS011;11023;48.274;7.794;2024-01-06T09:08:33;6.07;;;2.13;;
21721;SDS011;11023;48.274;7.794;2024-01-06T09:10:58;6.75;;;2.35;;
21721;SDS011;11023;48.274;7.794;2024-01-06T09:13:24;3.10;;;1.92;;
21721;SDS011;11023;48.274;7.794;2024-01-06T09:15:51;7.75;;;1.95;;
21721;SDS011;11023;48.274;7.794;2024-01-06T09:18:17;2.63;;;1.52;;
21721;SDS011;11023;48.274;7.794;2024-01-06T09:20:42;6.00;;;2.03;;
21721;SDS011;11023;48.274;7.794;2024-01-06T09:23:08;4.82;;;1.77;;
21721;SDS011;11023;48.274;7.794;2024-01-06T09:25:35;5.22;;;2.58;;
21721;SDS011;11023;48.274;7.794;2024-01-06T09:28:01;7.07;;;2.70;;
21721;SDS011;11023;48.274;7.794;2024-01-06T09:30:27;5.60;;;2.25;;
21721;SDS011;11023;48.274;7.794;2024-01-06T09:32:55;4.65;;;2.80;;
21721;SDS011;11023;48.274;7.794;2024-01-06T09:35:21;9.23;;;3.05;;
21721;SDS011;11023;48.274;7.794;2024-01-06T09:37:47;13.27;;;2.92;;
21721;SDS011;11023;48.274;7.794;2024-01-06T09:40:14;8.98;;;3.42;;
21721;SDS011;11023;48.274;7.794;2024-01-06T09:42:47;8.35;;;3.13;;
21721;SDS011;11023;48.274;7.794;2024-01-06T09:45:13;6.22;;;2.80;;
21721;SDS011;11023;48.274;7.794;2024-01-06T09:47:40;5.85;;;3.20;;
21721;SDS011;11023;48.274;7.794;2024-01-06T09:50:08;6.70;;;2.72;;
21721;SDS011;11023;48.274;7.794;2024-01-06T09:52:38;5.43;;;2.38;;
21721;SDS011;11023;48.274;7.794;2024-01-06T09:55:10;4.45;;;2.50;;
21721;SDS011;11023;48.274;7.794;2024-01-06T09:57:37;5.88;;;1.77;;
21721;SDS011;11023;48.274;7.794;2024-01-06T10:00:03;2.05;;;1.30;;
21721;SDS011;11023;48.274;7.794;2024-01-06T10:02:29;3.30;;;1.40;;
21721;SDS011;11023;48.274;7.794;2024-01-06T10:04:57;1.92;;;1.10;;
21721;SDS011;11023;48.274;7.794;2024-01-06T10:07:29;3.10;;;1.43;;
21721;SDS011;11023;48.274;7.794;2024-01-06T10:09:55;3.55;;;1.45;;
21721;SDS011;11023;48.274;7.794;2024-01-06T10:12:25;2.25;;;1.10;;
21721;SDS011;11023;48.274;7.794;2024-01-06T10:14:52;1.63;;;1.15;;
21721;SDS011;11023;48.274;7.794;2024-01-06T10:17:18;2.08;;;1.38;;
21721;SDS011;11023;48.274;7.794;2024-01-06T10:19:47;2.38;;;1.27;;
21721;SDS011;11023;48.274;7.794;2024-01-06T10:22:14;3.70;;;1.35;;
21721;SDS011;11023;48.274;7.794;2024-01-06T10:24:40;1.35;;;0.93;;
21721;SDS011;11023;48.274;7.794;2024-01-06T10:27:06;4.40;;;0.90;;
21721;SDS011;11023;48.274;7.794;2024-01-06T10:29:34;1.73;;;0.95;;
21721;SDS011;11023;48.274;7.794;2024-01-06T10:31:59;1.45;;;1.00;;
21721;SDS011;11023;48.274;7.794;2024-01-06T10:34:26;2.25;;;0.98;;
21721;SDS011;11023;48.274;7.794;2024-01-06T10:36:52;1.83;;;1.13;;
21721;SDS011;11023;48.274;7.794;2024-01-06T10:39:19;2.33;;;1.13;;
21721;SDS011;11023;48.274;7.794;2024-01-06T10:41:45;1.88;;;1.02;;
21721;SDS011;11023;48.274;7.794;2024-01-06T10:44:14;2.85;;;1.20;;
21721;SDS011;11023;48.274;7.794;2024-01-06T10:46:40;2.30;;;1.17;;
21721;SDS011;11023;48.274;7.794;2024-01-06T10:49:08;2.33;;;1.50;;
21721;SDS011;11023;48.274;7.794;2024-01-06T10:51:37;2.13;;;1.20;;
21721;SDS011;11023;48.274;7.794;2024-01-06T10:54:04;1.65;;;1.30;;
21721;SDS011;11023;48.274;7.794;2024-01-06T10:56:31;1.85;;;1.30;;
21721;SDS011;11023;48.274;7.794;2024-01-06T10:59:01;2.08;;;1.05;;
21721;SDS011;11023;48.274;7.794;2024-01-06T11:01:29;2.03;;;1.35;;
21721;SDS011;11023;48.274;7.794;2024-01-06T11:03:55;2.20;;;1.38;;
21721;SDS011;11023;48.274;7.794;2024-01-06T11:06:21;2.65;;;1.58;;
21721;SDS011;11023;48.274;7.794;2024-01-06T11:09:31;2.60;;;1.30;;
21721;SDS011;11023;48.274;7.794;2024-01-06T11:11:44;3.58;;;1.65;;
21721;SDS011;11023;48.274;7.794;2024-01-06T11:16:52;3.00;;;1.23;;
21721;SDS011;11023;48.274;7.794;2024-01-06T11:22:18;1.90;;;1.20;;
21721;SDS011;11023;48.274;7.794;2024-01-06T11:24:57;4.68;;;1.50;;
21721;SDS011;11023;48.274;7.794;2024-01-06T11:27:49;2.08;;;1.30;;
21721;SDS011;11023;48.274;7.794;2024-01-06T11:30:22;1.60;;;1.17;;
21721;SDS011;11023;48.274;7.794;2024-01-06T11:32:55;2.08;;;1.15;;
21721;SDS011;11023;48.274;7.794;2024-01-06T11:35:25;2.35;;;1.40;;
21721;SDS011;11023;48.274;7.794;2024-01-06T11:37:53;1.70;;;1.25;;
21721;SDS011;11023;48.274;7.794;2024-01-06T11:45:23;3.42;;;1.38;;
21721;SDS011;11023;48.274;7.794;2024-01-06T11:47:50;4.38;;;1.55;;
21721;SDS011;11023;48.274;7.794;2024-01-06T11:50:21;1.58;;;1.13;;
21721;SDS011;11023;48.274;7.794;2024-01-06T11:52:48;2.53;;;1.38;;
21721;SDS011;11023;48.274;7.794;2024-01-06T11:55:17;4.03;;;1.40;;
21721;SDS011;11023;48.274;7.794;2024-01-06T11:57:44;2.92;;;1.45;;
21721;SDS011;11023;48.274;7.794;2024-01-06T12:00:10;4.68;;;1.30;;
21721;SDS011;11023;48.274;7.794;2024-01-06T12:02:38;1.77;;;1.27;;
21721;SDS011;11023;48.274;7.794;2024-01-06T12:05:04;4.50;;;2.03;;
21721;SDS011;11023;48.274;7.794;2024-01-06T12:07:30;2.63;;;1.48;;
21721;SDS011;11023;48.274;7.794;2024-01-06T12:10:02;1.88;;;1.42;;
21721;SDS011;11023;48.274;7.794;2024-01-06T12:12:28;3.33;;;1.67;;
21721;SDS011;11023;48.274;7.794;2024-01-06T12:14:54;3.88;;;2.38;;
21721;SDS011;11023;48.274;7.794;2024-01-06T12:17:20;3.70;;;1.73;;
21721;SDS011;11023;48.274;7.794;2024-01-06T12:19:47;3.50;;;1.90;;
21721;SDS011;11023;48.274;7.794;2024-01-06T12:22:13;1.90;;;1.23;;
21721;SDS011;11023;48.274;7.794;2024-01-06T12:24:40;2.75;;;1.40;;
21721;SDS011;11023;48.274;7.794;2024-01-06T12:27:07;4.68;;;1.67;;
21721;SDS011;11023;48.274;7.794;2024-01-06T12:29:37;2.88;;;1.42;;
21721;SDS011;11023;48.274;7.794;2024-01-06T12:32:05;2.42;;;1.30;;
21721;SDS011;11023;48.274;7.794;2024-01-06T12:34:31;3.15;;;1.63;;
21721;SDS011;11023;48.274;7.794;2024-01-06T12:36:58;1.60;;;1.15;;
21721;SDS011;11023;48.274;7.794;2024-01-06T12:39:27;2.13;;;1.50;;
21721;SDS011;11023;48.274;7.794;2024-01-06T12:41:56;2.38;;;1.48;;
21721;SDS011;11023;48.274;7.794;2024-01-06T12:44:24;5.10;;;1.35;;
21721;SDS011;11023;48.274;7.794;2024-01-06T12:46:50;1.83;;;1.15;;
21721;SDS011;11023;48.274;7.794;2024-01-06T12:49:16;2.10;;;1.30;;
21721;SDS011;11023;48.274;7.794;2024-01-06T12:51:42;4.55;;;1.52;;
21721;SDS011;11023;48.274;7.794;2024-01-06T12:54:07;3.55;;;1.27;;
21721;SDS011;11023;48.274;7.794;2024-01-06T12:56:33;3.72;;;1.80;;
21721;SDS011;11023;48.274;7.794;2024-01-06T12:58:59;4.10;;;2.05;;
21721;SDS011;11023;48.274;7.794;2024-01-06T13:01:26;5.35;;;2.03;;
21721;SDS011;11023;48.274;7.794;2024-01-06T13:03:53;3.33;;;2.03;;
21721;SDS011;11023;48.274;7.794;2024-01-06T13:06:19;3.40;;;1.38;;
21721;SDS011;11023;48.274;7.794;2024-01-06T13:08:45;2.25;;;1.38;;
21721;SDS011;11023;48.274;7.794;2024-01-06T13:11:11;3.15;;;1.85;;
21721;SDS011;11023;48.274;7.794;2024-01-06T13:13:36;1.92;;;1.13;;
21721;SDS011;11023;48.274;7.794;2024-01-06T13:16:02;2.65;;;1.67;;
21721;SDS011;11023;48.274;7.794;2024-01-06T13:18:30;2.83;;;1.58;;
21721;SDS011;11023;48.274;7.794;2024-01-06T13:20:55;4.85;;;1.67;;
21721;SDS011;11023;48.274;7.794;2024-01-06T13:23:21;3.17;;;2.13;;
21721;SDS011;11023;48.274;7.794;2024-01-06T13:25:47;4.32;;;1.80;;
21721;SDS011;11023;48.274;7.794;2024-01-06T13:28:13;4.30;;;1.98;;
21721;SDS011;11023;48.274;7.794;2024-01-06T13:30:39;2.92;;;1.60;;
21721;SDS011;11023;48.274;7.794;2024-01-06T13:33:07;2.38;;;1.70;;
21721;SDS011;11023;48.274;7.794;2024-01-06T13:35:34;3.92;;;1.88;;
21721;SDS011;11023;48.274;7.794;2024-01-06T13:38:01;3.00;;;1.50;;
21721;SDS011;11023;48.274;7.794;2024-01-06T13:40:29;2.75;;;1.48;;
21721;SDS011;11023;48.274;7.794;2024-01-06T13:42:55;2.72;;;1.20;;
21721;SDS011;11023;48.274;7.794;2024-01-06T13:45:21;1.67;;;1.23;;
21721;SDS011;11023;48.274;7.794;2024-01-06T13:47:47;2.05;;;1.33;;
21721;SDS011;11023;48.274;7.794;2024-01-06T13:50:13;1.60;;;1.25;;
21721;SDS011;11023;48.274;7.794;2024-01-06T13:52:41;2.60;;;1.30;;
21721;SDS011;11023;48.274;7.794;2024-01-06T13:55:07;1.90;;;1.25;;
21721;SDS011;11023;48.274;7.794;2024-01-06T13:57:33;2.10;;;1.30;;
21721;SDS011;11023;48.274;7.794;2024-01-06T14:00:00;3.38;;;1.83;;
21721;SDS011;11023;48.274;7.794;2024-01-06T14:02:26;3.35;;;1.90;;
21721;SDS011;11023;48.274;7.794;2024-01-06T14:04:52;2.58;;;1.58;;
21721;SDS011;11023;48.274;7.794;2024-01-06T14:07:18;4.55;;;1.40;;
21721;SDS011;11023;48.274;7.794;2024-01-06T14:09:47;3.25;;;1.52;;
21721;SDS011;11023;48.274;7.794;2024-01-06T14:12:12;4.15;;;1.83;;
21721;SDS011;11023;48.274;7.794;2024-01-06T14:14:38;3.47;;;1.75;;
21721;SDS011;11023;48.274;7.794;2024-01-06T14:17:06;3.35;;;1.83;;
21721;SDS011;11023;48.274;7.794;2024-01-06T14:19:32;3.05;;;1.60;;
21721;SDS011;11023;48.274;7.794;2024-01-06T14:21:58;2.50;;;1.83;;
21721;SDS011;11023;48.274;7.794;2024-01-06T14:24:24;4.50;;;1.92;;
21721;SDS011;11023;48.274;7.794;2024-01-06T14:26:50;2.03;;;1.70;;
21721;SDS011;11023;48.274;7.794;2024-01-06T14:29:16;4.95;;;1.90;;
21721;SDS011;11023;48.274;7.794;2024-01-06T14:31:42;2.83;;;1.75;;
21721;SDS011;11023;48.274;7.794;2024-01-06T14:34:08;3.90;;;2.10;;
21721;SDS011;11023;48.274;7.794;2024-01-06T14:36:34;5.30;;;2.10;;
21721;SDS011;11023;48.274;7.794;2024-01-06T14:39:00;3.38;;;2.20;;
21721;SDS011;11023;48.274;7.794;2024-01-06T14:41:26;2.97;;;2.00;;
21721;SDS011;11023;48.274;7.794;2024-01-06T14:43:52;3.08;;;2.20;;
21721;SDS011;11023;48.274;7.794;2024-01-06T14:46:18;2.45;;;1.77;;
21721;SDS011;11023;48.274;7.794;2024-01-06T14:48:44;4.57;;;2.13;;
21721;SDS011;11023;48.274;7.794;2024-01-06T14:51:10;4.50;;;2.33;;
21721;SDS011;11023;48.274;7.794;2024-01-06T14:53:35;3.70;;;1.85;;
21721;SDS011;11023;48.274;7.794;2024-01-06T14:56:01;2.72;;;1.77;;